sensor_id;sensor_type;location;lat;lon;timestamp;temperature;humidity
14357;DHT22;7262;48.764;9.166;2023-02-12T00:00:02;5.80;99.90
14357;DHT22;7262;48.764;9.166;2023-02-12T00:02:30;5.80;99.90
14357;DHT22;7262;48.764;9.166;2023-02-12T00:04:57;5.80;99.90
14357;DHT22;7262;48.764;9.166;2023-02-12T00:07:25;5.80;99.90
14357;DHT22;7262;48.764;9.166;2023-02-12T00:09:54;5.80;99.90
14357;DHT22;7262;48.764;9.166;2023-02-12T00:12:21;5.70;99.90
14357;DHT22;7262;48.764;9.166;2023-02-12T00:14:48;5.70;99.90
14357;DHT22;7262;48.764;9.166;2023-02-12T00:17:15;5.70;99.90
14357;DHT22;7262;48.764;9.166;2023-02-12T00:19:41;5.70;99.90
14357;DHT22;7262;48.764;9.166;2023-02-12T00:22:08;5.70;99.90
14357;DHT22;7262;48.764;9.166;2023-02-12T00:24:36;5.70;99.90
14357;DHT22;7262;48.764;9.166;2023-02-12T00:27:03;5.70;99.90
14357;DHT22;7262;48.764;9.166;2023-02-12T00:29:30;5.70;99.90
14357;DHT22;7262;48.764;9.166;2023-02-12T00:31:57;5.70;99.90
14357;DHT22;7262;48.764;9.166;2023-02-12T00:34:23;5.80;99.90
14357;DHT22;7262;48.764;9.166;2023-02-12T00:36:50;5.70;99.90
14357;DHT22;7262;48.764;9.166;2023-02-12T00:39:17;5.70;99.90
14357;DHT22;7262;48.764;9.166;2023-02-12T00:41:45;5.70;99.90
14357;DHT22;7262;48.764;9.166;2023-02-12T00:44:11;5.70;99.90
14357;DHT22;7262;48.764;9.166;2023-02-12T00:46:39;5.70;99.90
14357;DHT22;7262;48.764;9.166;2023-02-12T00:49:05;5.70;99.90
14357;DHT22;7262;48.764;9.166;2023-02-12T00:51:32;5.60;99.90
14357;DHT22;7262;48.764;9.166;2023-02-12T00:53:59;5.70;99.90
14357;DHT22;7262;48.764;9.166;2023-02-12T00:56:25;5.70;99.90
14357;DHT22;7262;48.764;9.166;2023-02-12T00:58:54;5.60;99.90
14357;DHT22;7262;48.764;9.166;2023-02-12T01:01:21;5.70;99.90
14357;DHT22;7262;48.764;9.166;2023-02-12T01:03:48;5.70;99.90
14357;DHT22;7262;48.764;9.166;2023-02-12T01:06:15;5.70;99.90
14357;DHT22;7262;48.764;9.166;2023-02-12T01:08:41;5.70;99.90
14357;DHT22;7262;48.764;9.166;2023-02-12T01:11:10;5.70;99.90
14357;DHT22;7262;48.764;9.166;2023-02-12T01:13:38;5.70;99.90
14357;DHT22;7262;48.764;9.166;2023-02-12T01:16:06;5.70;99.90
14357;DHT22;7262;48.764;9.166;2023-02-12T01:18:35;5.70;99.90
14357;DHT22;7262;48.764;9.166;2023-02-12T01:21:06;5.70;99.90
14357;DHT22;7262;48.764;9.166;2023-02-12T01:23:33;5.70;99.90
14357;DHT22;7262;48.764;9.166;2023-02-12T01:26:00;5.70;99.90
14357;DHT22;7262;48.764;9.166;2023-02-12T01:28:27;5.70;99.90
14357;DHT22;7262;48.764;9.166;2023-02-12T01:30:53;5.70;99.90
14357;DHT22;7262;48.764;9.166;2023-02-12T01:33:21;5.70;99.90
14357;DHT22;7262;48.764;9.166;2023-02-12T01:35:48;5.70;99.90
14357;DHT22;7262;48.764;9.166;2023-02-12T01:38:15;5.70;99.90
14357;DHT22;7262;48.764;9.166;2023-02-12T01:40:41;5.70;99.90
14357;DHT22;7262;48.764;9.166;2023-02-12T01:43:09;5.70;99.90
14357;DHT22;7262;48.764;9.166;2023-02-12T01:45:41;5.60;99.90
14357;DHT22;7262;48.764;9.166;2023-02-12T01:48:09;5.60;99.90
14357;DHT22;7262;48.764;9.166;2023-02-12T01:50:38;5.60;99.90
14357;DHT22;7262;48.764;9.166;2023-02-12T01:53:04;5.60;99.90
14357;DHT22;7262;48.764;9.166;2023-02-12T01:55:31;5.60;99.90
14357;DHT22;7262;48.764;9.166;2023-02-12T01:57:58;5.60;99.90
14357;DHT22;7262;48.764;9.166;2023-02-12T02:00:25;5.60;99.90
14357;DHT22;7262;48.764;9.166;2023-02-12T02:02:52;5.60;99.90
14357;DHT22;7262;48.764;9.166;2023-02-12T02:05:22;5.60;99.90
14357;DHT22;7262;48.764;9.166;2023-02-12T02:07:51;5.60;99.90
14357;DHT22;7262;48.764;9.166;2023-02-12T02:10:19;5.60;99.90
14357;DHT22;7262;48.764;9.166;2023-02-12T02:12:46;5.60;99.90
14357;DHT22;7262;48.764;9.166;2023-02-12T02:15:30;5.60;99.90
14357;DHT22;7262;48.764;9.166;2023-02-12T02:17:57;5.60;99.90
14357;DHT22;7262;48.764;9.166;2023-02-12T02:23:19;5.50;99.90
14357;DHT22;7262;48.764;9.166;2023-02-12T02:26:04;5.50;99.90
14357;DHT22;7262;48.764;9.166;2023-02-12T02:28:41;5.60;99.90
14357;DHT22;7262;48.764;9.166;2023-02-12T02:31:15;5.60;99.90
14357;DHT22;7262;48.764;9.166;2023-02-12T02:33:45;5.50;99.90
14357;DHT22;7262;48.764;9.166;2023-02-12T02:36:15;5.50;99.90
14357;DHT22;7262;48.764;9.166;2023-02-12T02:38:49;5.50;99.90
14357;DHT22;7262;48.764;9.166;2023-02-12T02:41:18;5.50;99.90
14357;DHT22;7262;48.764;9.166;2023-02-12T02:43:47;5.50;99.90
14357;DHT22;7262;48.764;9.166;2023-02-12T02:46:16;5.50;99.90
14357;DHT22;7262;48.764;9.166;2023-02-12T02:48:45;5.50;99.90
14357;DHT22;7262;48.764;9.166;2023-02-12T02:51:13;5.50;99.90
14357;DHT22;7262;48.764;9.166;2023-02-12T02:53:42;5.50;99.90
14357;DHT22;7262;48.764;9.166;2023-02-12T02:56:11;5.50;99.90
14357;DHT22;7262;48.764;9.166;2023-02-12T02:58:40;5.60;99.90
14357;DHT22;7262;48.764;9.166;2023-02-12T03:01:09;5.60;99.90
14357;DHT22;7262;48.764;9.166;2023-02-12T03:03:39;5.60;99.90
14357;DHT22;7262;48.764;9.166;2023-02-12T03:06:08;5.50;99.90
14357;DHT22;7262;48.764;9.166;2023-02-12T03:08:36;5.50;99.90
14357;DHT22;7262;48.764;9.166;2023-02-12T03:11:06;5.60;99.90
14357;DHT22;7262;48.764;9.166;2023-02-12T03:13:35;5.50;99.90
14357;DHT22;7262;48.764;9.166;2023-02-12T03:16:03;5.50;99.90
14357;DHT22;7262;48.764;9.166;2023-02-12T03:18:32;5.40;99.90
14357;DHT22;7262;48.764;9.166;2023-02-12T03:21:04;5.50;99.90
14357;DHT22;7262;48.764;9.166;2023-02-12T03:23:34;5.50;99.90
14357;DHT22;7262;48.764;9.166;2023-02-12T03:26:03;5.60;99.90
14357;DHT22;7262;48.764;9.166;2023-02-12T03:28:32;5.60;99.90
14357;DHT22;7262;48.764;9.166;2023-02-12T03:31:02;5.50;99.90
14357;DHT22;7262;48.764;9.166;2023-02-12T03:33:32;5.60;99.90
14357;DHT22;7262;48.764;9.166;2023-02-12T03:36:07;5.50;99.90
14357;DHT22;7262;48.764;9.166;2023-02-12T03:38:37;5.60;99.90
14357;DHT22;7262;48.764;9.166;2023-02-12T03:41:05;5.50;99.90
14357;DHT22;7262;48.764;9.166;2023-02-12T03:43:36;5.70;99.90
14357;DHT22;7262;48.764;9.166;2023-02-12T03:46:07;5.70;99.90
14357;DHT22;7262;48.764;9.166;2023-02-12T03:48:40;5.70;99.90
14357;DHT22;7262;48.764;9.166;2023-02-12T03:51:12;5.60;99.90
14357;DHT22;7262;48.764;9.166;2023-02-12T03:53:42;5.60;99.90
14357;DHT22;7262;48.764;9.166;2023-02-12T03:56:12;5.60;99.90
14357;DHT22;7262;48.764;9.166;2023-02-12T03:58:40;5.60;99.90
14357;DHT22;7262;48.764;9.166;2023-02-12T04:01:08;5.60;99.90
14357;DHT22;7262;48.764;9.166;2023-02-12T04:03:35;5.60;99.90
14357;DHT22;7262;48.764;9.166;2023-02-12T04:06:02;5.60;99.90
14357;DHT22;7262;48.764;9.166;2023-02-12T04:08:30;5.50;99.90
14357;DHT22;7262;48.764;9.166;2023-02-12T04:11:00;5.60;99.90
14357;DHT22;7262;48.764;9.166;2023-02-12T04:13:32;5.60;99.90
14357;DHT22;7262;48.764;9.166;2023-02-12T04:16:06;5.60;99.90
14357;DHT22;7262;48.764;9.166;2023-02-12T04:18:39;5.50;99.90
14357;DHT22;7262;48.764;9.166;2023-02-12T04:21:10;5.50;99.90
14357;DHT22;7262;48.764;9.166;2023-02-12T04:23:45;5.50;99.90
14357;DHT22;7262;48.764;9.166;2023-02-12T04:26:16;5.40;99.90
14357;DHT22;7262;48.764;9.166;2023-02-12T04:28:46;5.40;99.90
14357;DHT22;7262;48.764;9.166;2023-02-12T04:31:19;5.50;99.90
14357;DHT22;7262;48.764;9.166;2023-02-12T04:33:49;5.40;99.90
14357;DHT22;7262;48.764;9.166;2023-02-12T04:36:20;5.40;99.90
14357;DHT22;7262;48.764;9.166;2023-02-12T04:38:49;5.40;99.90
14357;DHT22;7262;48.764;9.166;2023-02-12T04:41:17;5.40;99.90
14357;DHT22;7262;48.764;9.166;2023-02-12T04:43:44;5.40;99.90
14357;DHT22;7262;48.764;9.166;2023-02-12T04:46:11;5.40;99.90
14357;DHT22;7262;48.764;9.166;2023-02-12T04:48:45;5.40;99.90
14357;DHT22;7262;48.764;9.166;2023-02-12T04:51:15;5.40;99.90
14357;DHT22;7262;48.764;9.166;2023-02-12T04:53:41;5.50;99.90
14357;DHT22;7262;48.764;9.166;2023-02-12T04:56:11;5.50;99.90
14357;DHT22;7262;48.764;9.166;2023-02-12T04:58:38;5.50;99.90
14357;DHT22;7262;48.764;9.166;2023-02-12T05:01:05;5.40;99.90
14357;DHT22;7262;48.764;9.166;2023-02-12T05:03:32;5.50;99.90
14357;DHT22;7262;48.764;9.166;2023-02-12T05:06:01;5.50;99.90
14357;DHT22;7262;48.764;9.166;2023-02-12T05:08:27;5.50;99.90
14357;DHT22;7262;48.764;9.166;2023-02-12T05:10:54;5.50;99.90
14357;DHT22;7262;48.764;9.166;2023-02-12T05:13:22;5.50;99.90
14357;DHT22;7262;48.764;9.166;2023-02-12T05:15:49;5.50;99.90
14357;DHT22;7262;48.764;9.166;2023-02-12T05:18:16;5.50;99.90
14357;DHT22;7262;48.764;9.166;2023-02-12T05:20:42;5.60;99.90
14357;DHT22;7262;48.764;9.166;2023-02-12T05:23:09;5.60;99.90
14357;DHT22;7262;48.764;9.166;2023-02-12T05:25:36;5.50;99.90
14357;DHT22;7262;48.764;9.166;2023-02-12T05:28:03;5.60;99.90
14357;DHT22;7262;48.764;9.166;2023-02-12T05:30:31;5.50;99.90
14357;DHT22;7262;48.764;9.166;2023-02-12T05:32:58;5.50;99.90
14357;DHT22;7262;48.764;9.166;2023-02-12T05:35:25;5.50;99.90
14357;DHT22;7262;48.764;9.166;2023-02-12T05:37:51;5.50;99.90
14357;DHT22;7262;48.764;9.166;2023-02-12T05:40:18;5.50;99.90
14357;DHT22;7262;48.764;9.166;2023-02-12T05:42:45;5.50;99.90
14357;DHT22;7262;48.764;9.166;2023-02-12T05:45:12;5.60;99.90
14357;DHT22;7262;48.764;9.166;2023-02-12T05:47:40;5.50;99.90
14357;DHT22;7262;48.764;9.166;2023-02-12T05:50:07;5.60;99.90
14357;DHT22;7262;48.764;9.166;2023-02-12T05:52:34;5.60;99.90
14357;DHT22;7262;48.764;9.166;2023-02-12T05:55:01;5.60;99.90
14357;DHT22;7262;48.764;9.166;2023-02-12T05:57:28;5.50;99.90
14357;DHT22;7262;48.764;9.166;2023-02-12T05:59:55;5.40;99.90
14357;DHT22;7262;48.764;9.166;2023-02-12T06:02:22;5.40;99.90
14357;DHT22;7262;48.764;9.166;2023-02-12T06:04:52;5.40;99.90
14357;DHT22;7262;48.764;9.166;2023-02-12T06:07:18;5.40;99.90
14357;DHT22;7262;48.764;9.166;2023-02-12T06:09:45;5.40;99.90
14357;DHT22;7262;48.764;9.166;2023-02-12T06:12:12;5.50;99.90
14357;DHT22;7262;48.764;9.166;2023-02-12T06:14:39;5.50;99.90
14357;DHT22;7262;48.764;9.166;2023-02-12T06:17:06;5.50;99.90
14357;DHT22;7262;48.764;9.166;2023-02-12T06:19:35;5.50;99.90
14357;DHT22;7262;48.764;9.166;2023-02-12T06:22:04;5.50;99.90
14357;DHT22;7262;48.764;9.166;2023-02-12T06:24:30;5.50;99.90
14357;DHT22;7262;48.764;9.166;2023-02-12T06:26:57;5.50;99.90
14357;DHT22;7262;48.764;9.166;2023-02-12T06:29:24;5.40;99.90
14357;DHT22;7262;48.764;9.166;2023-02-12T06:31:51;5.40;99.90
14357;DHT22;7262;48.764;9.166;2023-02-12T06:34:17;5.40;99.90
14357;DHT22;7262;48.764;9.166;2023-02-12T06:36:44;5.40;99.90
14357;DHT22;7262;48.764;9.166;2023-02-12T06:39:14;5.40;99.90
14357;DHT22;7262;48.764;9.166;2023-02-12T06:41:41;5.50;99.90
14357;DHT22;7262;48.764;9.166;2023-02-12T06:44:09;5.40;99.90
14357;DHT22;7262;48.764;9.166;2023-02-12T06:46:37;5.40;99.90
14357;DHT22;7262;48.764;9.166;2023-02-12T06:49:03;5.50;99.90
14357;DHT22;7262;48.764;9.166;2023-02-12T06:51:30;5.50;99.90
14357;DHT22;7262;48.764;9.166;2023-02-12T06:54:00;5.50;99.90
14357;DHT22;7262;48.764;9.166;2023-02-12T06:56:28;5.50;99.90
14357;DHT22;7262;48.764;9.166;2023-02-12T06:58:57;5.60;99.90
14357;DHT22;7262;48.764;9.166;2023-02-12T07:01:26;5.60;99.90
14357;DHT22;7262;48.764;9.166;2023-02-12T07:03:54;5.60;99.90
14357;DHT22;7262;48.764;9.166;2023-02-12T07:06:21;5.70;99.90
14357;DHT22;7262;48.764;9.166;2023-02-12T07:08:50;5.70;99.90
14357;DHT22;7262;48.764;9.166;2023-02-12T07:11:21;5.70;99.90
14357;DHT22;7262;48.764;9.166;2023-02-12T07:13:49;5.70;99.90
14357;DHT22;7262;48.764;9.166;2023-02-12T07:16:16;5.80;99.90
14357;DHT22;7262;48.764;9.166;2023-02-12T07:18:43;5.80;99.90
14357;DHT22;7262;48.764;9.166;2023-02-12T07:21:10;5.90;99.90
14357;DHT22;7262;48.764;9.166;2023-02-12T07:23:37;5.90;99.90
14357;DHT22;7262;48.764;9.166;2023-02-12T07:26:05;6.00;99.90
14357;DHT22;7262;48.764;9.166;2023-02-12T07:28:32;6.10;99.90
14357;DHT22;7262;48.764;9.166;2023-02-12T07:31:02;6.20;99.90
14357;DHT22;7262;48.764;9.166;2023-02-12T07:33:31;6.20;99.90
14357;DHT22;7262;48.764;9.166;2023-02-12T07:35:58;6.20;99.90
14357;DHT22;7262;48.764;9.166;2023-02-12T07:38:25;6.30;99.90
14357;DHT22;7262;48.764;9.166;2023-02-12T07:40:52;6.40;99.90
14357;DHT22;7262;48.764;9.166;2023-02-12T07:43:19;6.40;99.90
14357;DHT22;7262;48.764;9.166;2023-02-12T07:45:45;6.50;99.90
14357;DHT22;7262;48.764;9.166;2023-02-12T07:48:13;6.50;99.90
14357;DHT22;7262;48.764;9.166;2023-02-12T07:50:40;6.60;99.90
14357;DHT22;7262;48.764;9.166;2023-02-12T07:53:07;6.70;99.90
14357;DHT22;7262;48.764;9.166;2023-02-12T07:55:34;6.70;99.90
14357;DHT22;7262;48.764;9.166;2023-02-12T07:58:00;6.80;99.90
14357;DHT22;7262;48.764;9.166;2023-02-12T08:00:27;6.70;99.90
14357;DHT22;7262;48.764;9.166;2023-02-12T08:02:54;6.60;99.90
14357;DHT22;7262;48.764;9.166;2023-02-12T08:05:22;6.60;99.90
14357;DHT22;7262;48.764;9.166;2023-02-12T08:07:48;6.60;99.90
14357;DHT22;7262;48.764;9.166;2023-02-12T08:10:15;6.60;99.90
14357;DHT22;7262;48.764;9.166;2023-02-12T08:12:46;6.60;99.90
14357;DHT22;7262;48.764;9.166;2023-02-12T08:15:13;6.70;99.90
14357;DHT22;7262;48.764;9.166;2023-02-12T08:17:40;6.60;99.90
14357;DHT22;7262;48.764;9.166;2023-02-12T08:20:08;6.60;99.90
14357;DHT22;7262;48.764;9.166;2023-02-12T08:22:36;6.60;99.90
14357;DHT22;7262;48.764;9.166;2023-02-12T08:25:03;6.70;99.90
14357;DHT22;7262;48.764;9.166;2023-02-12T08:27:30;6.80;99.90
14357;DHT22;7262;48.764;9.166;2023-02-12T08:29:57;6.90;99.90
14357;DHT22;7262;48.764;9.166;2023-02-12T08:32:23;7.00;99.90
14357;DHT22;7262;48.764;9.166;2023-02-12T08:34:50;7.10;99.90
14357;DHT22;7262;48.764;9.166;2023-02-12T08:37:17;7.10;99.90
14357;DHT22;7262;48.764;9.166;2023-02-12T08:39:47;7.20;99.90
14357;DHT22;7262;48.764;9.166;2023-02-12T08:42:14;7.30;99.90
14357;DHT22;7262;48.764;9.166;2023-02-12T08:44:41;7.40;99.90
14357;DHT22;7262;48.764;9.166;2023-02-12T08:47:07;7.50;99.90
14357;DHT22;7262;48.764;9.166;2023-02-12T08:49:34;7.50;99.90
14357;DHT22;7262;48.764;9.166;2023-02-12T08:52:01;7.70;99.90
14357;DHT22;7262;48.764;9.166;2023-02-12T08:54:28;7.70;99.90
14357;DHT22;7262;48.764;9.166;2023-02-12T08:56:57;7.70;99.90
14357;DHT22;7262;48.764;9.166;2023-02-12T08:59:24;7.80;99.90
14357;DHT22;7262;48.764;9.166;2023-02-12T09:01:51;7.90;99.90
14357;DHT22;7262;48.764;9.166;2023-02-12T09:04:19;7.90;99.90
14357;DHT22;7262;48.764;9.166;2023-02-12T09:06:47;7.90;99.90
14357;DHT22;7262;48.764;9.166;2023-02-12T09:09:14;8.00;99.90
14357;DHT22;7262;48.764;9.166;2023-02-12T09:11:47;8.00;99.90
14357;DHT22;7262;48.764;9.166;2023-02-12T09:14:21;7.90;99.90
14357;DHT22;7262;48.764;9.166;2023-02-12T09:16:54;7.90;99.90
14357;DHT22;7262;48.764;9.166;2023-02-12T09:19:23;8.10;99.90
14357;DHT22;7262;48.764;9.166;2023-02-12T09:21:58;8.20;99.90
14357;DHT22;7262;48.764;9.166;2023-02-12T09:24:25;8.10;99.90
14357;DHT22;7262;48.764;9.166;2023-02-12T09:26:53;8.10;99.90
14357;DHT22;7262;48.764;9.166;2023-02-12T09:32:06;8.00;99.90
14357;DHT22;7262;48.764;9.166;2023-02-12T09:34:34;8.00;99.90
14357;DHT22;7262;48.764;9.166;2023-02-12T09:37:01;8.00;99.90
14357;DHT22;7262;48.764;9.166;2023-02-12T09:39:35;8.00;99.90
14357;DHT22;7262;48.764;9.166;2023-02-12T09:42:18;8.00;99.90
14357;DHT22;7262;48.764;9.166;2023-02-12T09:44:48;8.00;99.90
14357;DHT22;7262;48.764;9.166;2023-02-12T09:47:31;8.00;99.90
14357;DHT22;7262;48.764;9.166;2023-02-12T09:52:59;8.20;99.90
14357;DHT22;7262;48.764;9.166;2023-02-12T09:55:28;8.20;99.90
14357;DHT22;7262;48.764;9.166;2023-02-12T09:58:03;8.20;99.90
14357;DHT22;7262;48.764;9.166;2023-02-12T10:00:33;7.90;99.90
14357;DHT22;7262;48.764;9.166;2023-02-12T10:03:13;8.20;99.90
14357;DHT22;7262;48.764;9.166;2023-02-12T10:05:50;8.50;99.90
14357;DHT22;7262;48.764;9.166;2023-02-12T10:08:30;8.60;99.90
14357;DHT22;7262;48.764;9.166;2023-02-12T10:11:11;8.70;99.90
14357;DHT22;7262;48.764;9.166;2023-02-12T10:14:02;8.60;99.90
14357;DHT22;7262;48.764;9.166;2023-02-12T10:16:49;8.60;99.90
14357;DHT22;7262;48.764;9.166;2023-02-12T10:19:36;8.60;99.90
14357;DHT22;7262;48.764;9.166;2023-02-12T10:22:12;8.50;99.90
14357;DHT22;7262;48.764;9.166;2023-02-12T10:24:48;8.70;99.90
14357;DHT22;7262;48.764;9.166;2023-02-12T10:27:19;8.90;99.90
14357;DHT22;7262;48.764;9.166;2023-02-12T10:29:49;8.80;99.90
14357;DHT22;7262;48.764;9.166;2023-02-12T10:32:22;8.90;99.90
14357;DHT22;7262;48.764;9.166;2023-02-12T10:34:56;9.10;99.90
14357;DHT22;7262;48.764;9.166;2023-02-12T10:37:25;9.10;99.90
14357;DHT22;7262;48.764;9.166;2023-02-12T10:39:54;9.10;99.90
14357;DHT22;7262;48.764;9.166;2023-02-12T10:42:25;9.20;99.90
14357;DHT22;7262;48.764;9.166;2023-02-12T10:44:58;9.20;99.90
14357;DHT22;7262;48.764;9.166;2023-02-12T10:47:25;9.20;99.90
14357;DHT22;7262;48.764;9.166;2023-02-12T10:52:55;9.20;99.90
14357;DHT22;7262;48.764;9.166;2023-02-12T10:55:27;9.30;99.90
14357;DHT22;7262;48.764;9.166;2023-02-12T10:57:59;9.30;99.90
14357;DHT22;7262;48.764;9.166;2023-02-12T11:00:28;9.20;99.90
14357;DHT22;7262;48.764;9.166;2023-02-12T11:03:18;9.40;99.90
14357;DHT22;7262;48.764;9.166;2023-02-12T11:05:46;9.40;99.90
14357;DHT22;7262;48.764;9.166;2023-02-12T11:08:27;9.50;99.90
14357;DHT22;7262;48.764;9.166;2023-02-12T11:10:54;9.50;99.90
14357;DHT22;7262;48.764;9.166;2023-02-12T11:13:21;9.40;99.90
14357;DHT22;7262;48.764;9.166;2023-02-12T11:15:49;9.30;99.90
14357;DHT22;7262;48.764;9.166;2023-02-12T11:18:19;9.40;99.90
14357;DHT22;7262;48.764;9.166;2023-02-12T11:20:48;9.40;99.90
14357;DHT22;7262;48.764;9.166;2023-02-12T11:23:23;9.40;99.90
14357;DHT22;7262;48.764;9.166;2023-02-12T11:25:55;9.20;99.90
14357;DHT22;7262;48.764;9.166;2023-02-12T11:28:22;9.30;99.90
14357;DHT22;7262;48.764;9.166;2023-02-12T11:30:50;9.30;99.90
14357;DHT22;7262;48.764;9.166;2023-02-12T11:33:32;9.40;99.90
14357;DHT22;7262;48.764;9.166;2023-02-12T11:36:00;9.50;99.90
14357;DHT22;7262;48.764;9.166;2023-02-12T11:38:29;9.60;99.90
14357;DHT22;7262;48.764;9.166;2023-02-12T11:43:43;9.70;99.90
14357;DHT22;7262;48.764;9.166;2023-02-12T11:46:10;9.60;99.90
14357;DHT22;7262;48.764;9.166;2023-02-12T11:48:50;9.80;99.90
14357;DHT22;7262;48.764;9.166;2023-02-12T11:51:23;9.70;99.90
14357;DHT22;7262;48.764;9.166;2023-02-12T11:53:51;9.50;99.90
14357;DHT22;7262;48.764;9.166;2023-02-12T11:56:19;9.80;99.90
14357;DHT22;7262;48.764;9.166;2023-02-12T11:58:49;10.00;99.90
14357;DHT22;7262;48.764;9.166;2023-02-12T12:01:18;9.80;99.90
14357;DHT22;7262;48.764;9.166;2023-02-12T12:03:49;9.80;99.90
14357;DHT22;7262;48.764;9.166;2023-02-12T12:06:26;9.70;99.90
14357;DHT22;7262;48.764;9.166;2023-02-12T12:09:00;9.90;99.90
14357;DHT22;7262;48.764;9.166;2023-02-12T12:11:36;9.80;99.90
14357;DHT22;7262;48.764;9.166;2023-02-12T12:14:12;9.80;99.90
14357;DHT22;7262;48.764;9.166;2023-02-12T12:16:46;9.90;99.90
14357;DHT22;7262;48.764;9.166;2023-02-12T12:19:33;9.90;99.90
14357;DHT22;7262;48.764;9.166;2023-02-12T12:22:31;9.80;99.90
14357;DHT22;7262;48.764;9.166;2023-02-12T12:25:04;9.90;99.90
14357;DHT22;7262;48.764;9.166;2023-02-12T12:27:35;10.10;99.90
14357;DHT22;7262;48.764;9.166;2023-02-12T12:30:31;10.00;99.90
14357;DHT22;7262;48.764;9.166;2023-02-12T12:33:04;9.80;99.90
14357;DHT22;7262;48.764;9.166;2023-02-12T12:35:36;9.90;99.90
14357;DHT22;7262;48.764;9.166;2023-02-12T12:38:11;10.30;99.90
14357;DHT22;7262;48.764;9.166;2023-02-12T12:40:47;10.50;99.90
14357;DHT22;7262;48.764;9.166;2023-02-12T12:43:19;10.30;99.90
14357;DHT22;7262;48.764;9.166;2023-02-12T12:46:11;10.20;99.90
14357;DHT22;7262;48.764;9.166;2023-02-12T12:48:47;10.10;99.90
14357;DHT22;7262;48.764;9.166;2023-02-12T12:51:29;10.10;99.90
14357;DHT22;7262;48.764;9.166;2023-02-12T12:54:10;10.60;99.90
14357;DHT22;7262;48.764;9.166;2023-02-12T12:56:44;11.00;99.90
14357;DHT22;7262;48.764;9.166;2023-02-12T13:04:59;11.40;99.90
14357;DHT22;7262;48.764;9.166;2023-02-12T13:07:37;11.40;99.90
14357;DHT22;7262;48.764;9.166;2023-02-12T13:10:12;11.50;99.90
14357;DHT22;7262;48.764;9.166;2023-02-12T13:12:54;11.50;99.90
14357;DHT22;7262;48.764;9.166;2023-02-12T13:15:25;11.20;99.90
14357;DHT22;7262;48.764;9.166;2023-02-12T13:17:59;11.30;99.90
14357;DHT22;7262;48.764;9.166;2023-02-12T13:20:33;11.60;99.90
14357;DHT22;7262;48.764;9.166;2023-02-12T13:23:04;12.50;99.90
14357;DHT22;7262;48.764;9.166;2023-02-12T13:25:33;13.10;99.90
14357;DHT22;7262;48.764;9.166;2023-02-12T13:28:08;14.20;99.90
14357;DHT22;7262;48.764;9.166;2023-02-12T13:30:38;14.40;99.90
14357;DHT22;7262;48.764;9.166;2023-02-12T13:33:09;14.40;99.90
14357;DHT22;7262;48.764;9.166;2023-02-12T13:35:46;14.80;99.90
14357;DHT22;7262;48.764;9.166;2023-02-12T13:38:14;16.30;99.90
14357;DHT22;7262;48.764;9.166;2023-02-12T13:40:45;16.70;99.90
14357;DHT22;7262;48.764;9.166;2023-02-12T13:43:21;17.30;99.90
14357;DHT22;7262;48.764;9.166;2023-02-12T13:45:57;17.90;99.90
14357;DHT22;7262;48.764;9.166;2023-02-12T13:48:35;17.90;99.90
14357;DHT22;7262;48.764;9.166;2023-02-12T13:51:13;17.80;99.90
14357;DHT22;7262;48.764;9.166;2023-02-12T13:53:45;16.40;99.90
14357;DHT22;7262;48.764;9.166;2023-02-12T13:56:18;15.90;99.90
14357;DHT22;7262;48.764;9.166;2023-02-12T13:58:50;15.30;99.90
14357;DHT22;7262;48.764;9.166;2023-02-12T14:07:00;15.20;99.90
14357;DHT22;7262;48.764;9.166;2023-02-12T14:09:34;15.70;99.90
14357;DHT22;7262;48.764;9.166;2023-02-12T14:12:03;15.90;99.90
14357;DHT22;7262;48.764;9.166;2023-02-12T14:14:31;16.40;99.90
14357;DHT22;7262;48.764;9.166;2023-02-12T14:19:53;17.10;99.90
14357;DHT22;7262;48.764;9.166;2023-02-12T14:25:30;17.60;99.90
14357;DHT22;7262;48.764;9.166;2023-02-12T14:27:57;18.10;99.90
14357;DHT22;7262;48.764;9.166;2023-02-12T14:30:32;17.80;99.90
14357;DHT22;7262;48.764;9.166;2023-02-12T14:35:47;18.20;99.90
14357;DHT22;7262;48.764;9.166;2023-02-12T14:46:49;17.90;99.90
14357;DHT22;7262;48.764;9.166;2023-02-12T14:49:21;18.60;99.90
14357;DHT22;7262;48.764;9.166;2023-02-12T14:51:56;18.30;99.90
14357;DHT22;7262;48.764;9.166;2023-02-12T14:54:26;18.00;99.90
14357;DHT22;7262;48.764;9.166;2023-02-12T14:57:02;17.50;99.90
14357;DHT22;7262;48.764;9.166;2023-02-12T14:59:32;17.80;99.90
14357;DHT22;7262;48.764;9.166;2023-02-12T15:02:01;18.30;99.90
14357;DHT22;7262;48.764;9.166;2023-02-12T15:04:30;17.40;99.90
14357;DHT22;7262;48.764;9.166;2023-02-12T15:07:03;17.30;99.90
14357;DHT22;7262;48.764;9.166;2023-02-12T15:09:33;16.70;99.90
14357;DHT22;7262;48.764;9.166;2023-02-12T15:12:04;16.40;99.90
14357;DHT22;7262;48.764;9.166;2023-02-12T15:14:34;16.50;99.90
14357;DHT22;7262;48.764;9.166;2023-02-12T15:17:07;16.40;99.90
14357;DHT22;7262;48.764;9.166;2023-02-12T15:19:37;16.50;99.90
14357;DHT22;7262;48.764;9.166;2023-02-12T15:22:16;16.10;99.90
14357;DHT22;7262;48.764;9.166;2023-02-12T15:24:43;15.60;99.90
14357;DHT22;7262;48.764;9.166;2023-02-12T15:27:11;14.20;99.90
14357;DHT22;7262;48.764;9.166;2023-02-12T15:29:40;14.30;99.90
14357;DHT22;7262;48.764;9.166;2023-02-12T15:32:13;14.90;99.90
14357;DHT22;7262;48.764;9.166;2023-02-12T15:34:41;15.40;99.90
14357;DHT22;7262;48.764;9.166;2023-02-12T15:37:14;15.40;99.90
14357;DHT22;7262;48.764;9.166;2023-02-12T15:39:43;14.80;99.90
14357;DHT22;7262;48.764;9.166;2023-02-12T15:42:23;13.80;99.90
14357;DHT22;7262;48.764;9.166;2023-02-12T15:44:51;12.90;99.90
14357;DHT22;7262;48.764;9.166;2023-02-12T15:47:25;12.10;99.90
14357;DHT22;7262;48.764;9.166;2023-02-12T15:49:57;11.40;99.90
14357;DHT22;7262;48.764;9.166;2023-02-12T15:52:26;11.00;99.90
14357;DHT22;7262;48.764;9.166;2023-02-12T15:54:59;10.50;99.90
14357;DHT22;7262;48.764;9.166;2023-02-12T15:57:28;10.30;99.90
14357;DHT22;7262;48.764;9.166;2023-02-12T15:59:56;10.00;99.90
14357;DHT22;7262;48.764;9.166;2023-02-12T16:02:29;9.80;99.90
14357;DHT22;7262;48.764;9.166;2023-02-12T16:05:05;9.60;99.90
14357;DHT22;7262;48.764;9.166;2023-02-12T16:07:34;9.50;99.90
14357;DHT22;7262;48.764;9.166;2023-02-12T16:10:05;9.50;99.90
14357;DHT22;7262;48.764;9.166;2023-02-12T16:12:32;9.30;99.90
14357;DHT22;7262;48.764;9.166;2023-02-12T16:15:02;9.10;99.90
14357;DHT22;7262;48.764;9.166;2023-02-12T16:17:32;9.10;99.90
14357;DHT22;7262;48.764;9.166;2023-02-12T16:20:00;9.00;99.90
14357;DHT22;7262;48.764;9.166;2023-02-12T16:22:30;8.80;99.90
14357;DHT22;7262;48.764;9.166;2023-02-12T16:24:59;8.90;99.90
14357;DHT22;7262;48.764;9.166;2023-02-12T16:27:47;8.80;99.90
14357;DHT22;7262;48.764;9.166;2023-02-12T16:36:02;8.70;99.90
14357;DHT22;7262;48.764;9.166;2023-02-12T16:38:40;8.60;99.90
14357;DHT22;7262;48.764;9.166;2023-02-12T16:46:43;8.30;99.90
14357;DHT22;7262;48.764;9.166;2023-02-12T16:49:15;8.20;99.90
14357;DHT22;7262;48.764;9.166;2023-02-12T16:54:37;7.90;99.90
14357;DHT22;7262;48.764;9.166;2023-02-12T16:57:07;7.90;99.90
14357;DHT22;7262;48.764;9.166;2023-02-12T16:59:40;7.80;99.90
14357;DHT22;7262;48.764;9.166;2023-02-12T17:02:20;7.70;99.90
14357;DHT22;7262;48.764;9.166;2023-02-12T17:04:50;7.70;99.90
14357;DHT22;7262;48.764;9.166;2023-02-12T17:07:20;7.50;99.90
14357;DHT22;7262;48.764;9.166;2023-02-12T17:09:49;7.40;99.90
14357;DHT22;7262;48.764;9.166;2023-02-12T17:12:15;7.40;99.90
14357;DHT22;7262;48.764;9.166;2023-02-12T17:14:42;7.50;99.90